KPRC

Ernest A Love Field Airport

Prescott, Arizona, USA
KPRC 261139Z 2612/2712 25005KT P6SM FEW210 SCT250 FM262000 23010G15KT P6SM SCT130 FM270200 21007KT P6SM SCT110
Issued Valid From Valid To
Apr-26 @ 11:39 UTC
(2 hours ago)
Apr-26 @ 12:00 UTC
(2 hours ago)
Apr-27 @ 12:00 UTC
(in 22 hours)
Apr-26 @ 12:00 to Apr-26 @ 20:00
KPRC 261139Z 2612/2712 25005KT P6SM FEW210 SCT250
Wind Visibility Clouds
250° at 5 knots Greater than 6 miles
  • Few at 21,000' AGL
  • Scattered at 25,000' AGL
From Apr-26 @ 20:00 to Apr-27 @ 02:00
FM262000 23010G15KT P6SM SCT130
Wind Visibility Clouds
230° at 10 knots
 Gusting to 15 knots
Greater than 6 miles
  • Scattered at 13,000' AGL
From Apr-27 @ 02:00 to Apr-27 @ 12:00
FM270200 21007KT P6SM SCT110
Wind Visibility Clouds
210° at 7 knots Greater than 6 miles
  • Scattered at 11,000' AGL
KPRC 261139Z 2612/2712 25005KT P6SM FEW210 SCT250 FM262000 23010G15KT P6SM SCT130 FM270200 21007KT P6SM SCT110
Issued Apr-26 @ 11:39 UTC
(2 hours ago)
Valid From Apr-26 @ 12:00 UTC
(2 hours ago)
Valid To Apr-27 @ 12:00 UTC
(in 22 hours)
Apr-26 @ 12:00 - Apr-26 @ 20:00
Wind Visibility
250° at 5 knots Greater than 6 miles
Clouds
  • Few at 21,000' AGL
  • Scattered at 25,000' AGL
From Apr-26 @ 20:00 - Apr-27 @ 02:00
Wind Visibility
230° at 10 knots
 Gusting to 15 knots
Greater than 6 miles
Clouds
  • Scattered at 13,000' AGL
From Apr-27 @ 02:00 - Apr-27 @ 12:00
Wind Visibility
210° at 7 knots Greater than 6 miles
Clouds
  • Scattered at 11,000' AGL